createdAt,value
2023-04-26T00:01:51.279Z,9.44
2023-04-26T00:04:18.813Z,9.43
2023-04-26T00:06:46.376Z,9.50
2023-04-26T00:09:13.796Z,9.54
2023-04-26T00:11:41.266Z,9.70
2023-04-26T00:14:08.681Z,9.52
2023-04-26T00:16:36.204Z,9.20
2023-04-26T00:19:04.314Z,9.13
2023-04-26T00:21:31.950Z,9.45
2023-04-26T00:23:59.298Z,9.38
2023-04-26T00:26:26.832Z,9.21
2023-04-26T00:28:54.402Z,9.08
2023-04-26T00:31:22.026Z,9.35
2023-04-26T00:33:49.467Z,9.55
2023-04-26T00:36:19.380Z,9.62
2023-04-26T00:38:47.036Z,9.47
2023-04-26T00:41:14.790Z,9.42
2023-04-26T00:43:42.464Z,9.24
2023-04-26T00:46:13.308Z,9.02
2023-04-26T00:48:41.514Z,9.14
2023-04-26T00:51:09.732Z,9.09
2023-04-26T00:53:37.232Z,9.20
2023-04-26T00:56:07.424Z,9.17
2023-04-26T00:58:34.969Z,9.19
2023-04-26T01:01:02.806Z,9.53
2023-04-26T01:03:30.745Z,9.32
2023-04-26T01:05:58.639Z,9.35
2023-04-26T01:08:26.167Z,9.37
2023-04-26T01:10:53.932Z,9.47
2023-04-26T01:13:21.667Z,9.61
2023-04-26T01:15:49.385Z,9.75
2023-04-26T01:18:18.280Z,9.54
2023-04-26T01:20:46.857Z,9.35
2023-04-26T01:23:14.373Z,9.51
2023-04-26T01:25:41.979Z,9.16
2023-04-26T01:28:09.546Z,9.18
2023-04-26T01:30:36.917Z,9.18
2023-04-26T01:33:04.328Z,9.11
2023-04-26T01:35:31.851Z,9.12
2023-04-26T01:37:59.224Z,8.96
2023-04-26T01:40:28.787Z,8.93
2023-04-26T01:42:56.288Z,8.83
2023-04-26T01:45:24.192Z,9.02
2023-04-26T01:48:10.460Z,9.22
2023-04-26T01:50:37.771Z,9.36
2023-04-26T01:53:05.165Z,9.50
2023-04-26T01:55:34.141Z,9.38
2023-04-26T01:58:02.015Z,8.96
2023-04-26T02:00:30.157Z,8.91
2023-04-26T02:02:58.159Z,9.03
2023-04-26T02:05:25.620Z,8.99
2023-04-26T02:07:53.047Z,9.27
2023-04-26T02:10:20.374Z,9.39
2023-04-26T02:12:47.756Z,9.35
2023-04-26T02:15:15.411Z,9.30
2023-04-26T02:17:43.005Z,9.28
2023-04-26T02:20:11.422Z,9.14
2023-04-26T02:22:38.890Z,9.16
2023-04-26T02:25:07.295Z,9.21
2023-04-26T02:27:34.859Z,9.17
2023-04-26T02:30:02.289Z,9.07
2023-04-26T02:32:30.096Z,9.11
2023-04-26T02:34:58.267Z,9.16
2023-04-26T02:37:26.741Z,9.17
2023-04-26T02:39:54.275Z,9.04
2023-04-26T02:42:21.773Z,9.09
2023-04-26T02:44:49.360Z,9.14
2023-04-26T02:47:16.978Z,9.08
2023-04-26T02:49:44.479Z,9.02
2023-04-26T02:52:11.725Z,8.97
2023-04-26T02:54:39.207Z,8.74
2023-04-26T02:57:08.322Z,8.69
2023-04-26T02:59:35.802Z,8.88
2023-04-26T03:02:03.237Z,8.87
2023-04-26T03:04:34.031Z,8.96
2023-04-26T03:07:02.711Z,8.96
2023-04-26T03:09:30.895Z,9.03
2023-04-26T03:11:58.751Z,8.80
2023-04-26T03:14:27.043Z,8.56
2023-04-26T03:16:55.178Z,8.60
2023-04-26T03:19:22.504Z,8.66
2023-04-26T03:21:50.777Z,8.34
2023-04-26T03:24:18.342Z,8.33
2023-04-26T03:26:46.159Z,8.50
2023-04-26T03:29:14.016Z,8.33
2023-04-26T03:31:41.359Z,8.16
2023-04-26T03:34:09.355Z,8.04
2023-04-26T03:36:36.921Z,8.14
2023-04-26T03:39:08.393Z,7.97
2023-04-26T03:41:39.394Z,7.81
2023-04-26T03:44:09.092Z,7.73
2023-04-26T03:46:44.047Z,7.44
2023-04-26T03:49:11.464Z,7.54
2023-04-26T03:51:39.042Z,7.73
2023-04-26T03:54:06.603Z,7.51
2023-04-26T03:56:34.116Z,7.64
2023-04-26T03:59:02.003Z,7.64
2023-04-26T04:01:29.543Z,7.58
2023-04-26T04:03:57.806Z,7.52
2023-04-26T04:06:25.557Z,7.54
2023-04-26T04:08:53.340Z,7.51
2023-04-26T04:11:21.680Z,7.56
2023-04-26T04:13:49.174Z,7.59
2023-04-26T04:16:16.757Z,7.71
2023-04-26T04:18:44.204Z,7.66
2023-04-26T04:21:11.985Z,7.50
2023-04-26T04:23:40.068Z,7.55
2023-04-26T04:26:12.624Z,7.45
2023-04-26T04:28:41.724Z,7.50
2023-04-26T04:31:13.124Z,7.50
2023-04-26T04:33:41.592Z,7.57
2023-04-26T04:36:09.736Z,7.66
2023-04-26T04:38:37.458Z,7.68
2023-04-26T04:41:06.047Z,7.69
2023-04-26T04:43:34.746Z,7.68
2023-04-26T04:46:02.479Z,7.65
2023-04-26T04:48:30.068Z,7.77
2023-04-26T04:50:58.384Z,7.66
2023-04-26T04:53:25.928Z,7.76
2023-04-26T04:55:53.452Z,7.65
2023-04-26T04:58:22.606Z,7.51
2023-04-26T05:00:52.576Z,7.64
2023-04-26T05:03:24.766Z,7.57
2023-04-26T05:05:52.310Z,7.67
2023-04-26T05:08:20.158Z,7.86
2023-04-26T05:10:47.657Z,7.90
2023-04-26T05:13:15.495Z,8.08
2023-04-26T05:15:43.026Z,8.00
2023-04-26T05:18:10.537Z,8.04
2023-04-26T05:20:39.151Z,7.93
2023-04-26T05:23:23.065Z,8.14
2023-04-26T05:25:51.185Z,8.22
2023-04-26T05:28:46.249Z,8.33
2023-04-26T05:31:26.094Z,8.38
2023-04-26T05:34:16.272Z,8.54
2023-04-26T05:36:47.838Z,8.56
2023-04-26T05:39:15.953Z,8.65
2023-04-26T05:41:43.408Z,8.66
2023-04-26T05:44:10.971Z,8.83
2023-04-26T05:46:43.072Z,8.95
2023-04-26T05:49:11.199Z,9.05
2023-04-26T05:51:38.633Z,8.98
2023-04-26T05:54:06.476Z,9.17
2023-04-26T05:56:34.085Z,9.20
2023-04-26T05:59:02.285Z,9.44
2023-04-26T06:01:30.108Z,9.59
2023-04-26T06:04:00.876Z,9.61
2023-04-26T06:06:34.012Z,9.60
2023-04-26T06:09:01.651Z,9.65
2023-04-26T06:11:29.525Z,9.86
2023-04-26T06:13:56.984Z,9.95
2023-04-26T06:16:25.991Z,10.13
2023-04-26T06:18:53.495Z,10.16
2023-04-26T06:21:20.993Z,10.18
2023-04-26T06:23:48.424Z,10.36
2023-04-26T06:26:18.735Z,10.60
2023-04-26T06:28:46.900Z,10.63
2023-04-26T06:31:15.032Z,10.81
2023-04-26T06:33:42.709Z,11.09
2023-04-26T06:36:13.440Z,11.23
2023-04-26T06:38:41.890Z,11.24
2023-04-26T06:41:09.348Z,11.38
2023-04-26T06:43:37.078Z,11.45
2023-04-26T06:46:14.704Z,11.71
2023-04-26T06:48:42.573Z,11.98
2023-04-26T06:51:10.021Z,11.95
2023-04-26T06:53:37.558Z,12.14
2023-04-26T06:56:05.335Z,12.25
2023-04-26T06:58:32.817Z,12.24
2023-04-26T07:01:00.278Z,12.38
2023-04-26T07:03:28.036Z,12.48
2023-04-26T07:05:56.706Z,12.47
2023-04-26T07:08:24.134Z,12.58
2023-04-26T07:10:52.120Z,12.78
2023-04-26T07:13:19.570Z,13.01
2023-04-26T07:15:47.007Z,13.18
2023-04-26T07:18:14.549Z,13.26
2023-04-26T07:20:42.138Z,13.28
2023-04-26T07:23:09.505Z,13.28
2023-04-26T07:25:36.995Z,13.28
2023-04-26T07:28:04.599Z,13.38
2023-04-26T07:30:32.592Z,13.33
2023-04-26T07:33:00.748Z,13.64
2023-04-26T07:35:28.626Z,13.63
2023-04-26T07:37:56.587Z,13.71
2023-04-26T07:40:26.189Z,13.88
2023-04-26T07:42:53.627Z,14.15
2023-04-26T07:45:21.582Z,14.35
2023-04-26T07:47:49.237Z,14.32
2023-04-26T07:50:16.796Z,14.41
2023-04-26T07:52:44.568Z,14.07
2023-04-26T07:55:11.957Z,14.15
2023-04-26T07:57:39.249Z,14.12
2023-04-26T08:00:10.365Z,14.14
2023-04-26T08:02:45.025Z,14.42
2023-04-26T08:05:18.034Z,14.28
2023-04-26T08:07:45.692Z,14.46
2023-04-26T08:10:13.024Z,14.57
2023-04-26T08:12:40.439Z,14.60
2023-04-26T08:15:08.346Z,14.67
2023-04-26T08:17:35.861Z,14.63
2023-04-26T08:20:05.856Z,14.70
2023-04-26T08:22:33.217Z,14.85
2023-04-26T08:25:00.753Z,14.91
2023-04-26T08:27:28.216Z,15.03
2023-04-26T08:29:55.601Z,15.25
2023-04-26T08:32:22.936Z,15.43
2023-04-26T08:34:50.443Z,15.66
2023-04-26T08:37:17.861Z,15.91
2023-04-26T08:39:45.169Z,16.02
2023-04-26T08:42:16.878Z,16.06
2023-04-26T08:44:44.815Z,16.07
2023-04-26T08:47:23.698Z,16.12
2023-04-26T08:50:01.000Z,16.37
2023-04-26T08:52:30.058Z,16.57
2023-04-26T08:54:58.923Z,16.47
2023-04-26T08:57:26.828Z,16.81
2023-04-26T08:59:57.856Z,16.85
2023-04-26T09:02:25.371Z,16.93
2023-04-26T09:04:53.108Z,16.98
2023-04-26T09:07:22.289Z,17.55
2023-04-26T09:09:51.572Z,18.27
2023-04-26T09:12:20.913Z,18.76
2023-04-26T09:14:48.732Z,18.09
2023-04-26T09:17:26.935Z,17.93
2023-04-26T09:19:55.692Z,17.58
2023-04-26T09:22:30.386Z,17.79
2023-04-26T09:24:58.401Z,17.88
2023-04-26T09:27:38.039Z,17.98
2023-04-26T09:30:09.588Z,17.93
2023-04-26T09:32:43.748Z,17.84
2023-04-26T09:35:33.488Z,17.58
2023-04-26T09:38:14.877Z,17.38
2023-04-26T09:40:47.105Z,17.17
2023-04-26T09:43:21.159Z,16.94
2023-04-26T09:45:52.174Z,16.83
2023-04-26T09:48:23.428Z,16.81
2023-04-26T09:50:54.979Z,16.88
2023-04-26T09:53:34.349Z,17.05
2023-04-26T09:56:10.442Z,16.90
2023-04-26T09:58:39.195Z,16.91
2023-04-26T10:01:08.045Z,16.99
2023-04-26T10:03:37.118Z,17.01
2023-04-26T10:06:05.125Z,16.90
2023-04-26T10:08:33.616Z,16.76
2023-04-26T10:11:04.200Z,16.58
2023-04-26T10:13:34.989Z,16.55
2023-04-26T10:16:03.541Z,16.74
2023-04-26T10:18:34.313Z,16.62
2023-04-26T10:21:22.639Z,16.81
2023-04-26T10:23:50.700Z,16.89
2023-04-26T10:26:54.915Z,16.77
2023-04-26T10:29:27.079Z,16.86
2023-04-26T10:32:06.809Z,17.10
2023-04-26T10:34:35.320Z,16.91
2023-04-26T10:37:18.399Z,16.92
2023-04-26T10:39:47.109Z,16.91
2023-04-26T10:42:32.305Z,16.91
2023-04-26T10:45:00.326Z,16.99
2023-04-26T10:47:34.905Z,17.02
2023-04-26T10:50:11.876Z,16.72
2023-04-26T10:53:02.584Z,16.77
2023-04-26T10:55:41.901Z,16.90
2023-04-26T10:58:34.673Z,17.00
2023-04-26T11:01:13.302Z,17.17
2023-04-26T11:03:41.350Z,17.33
2023-04-26T11:06:15.766Z,17.23
2023-04-26T11:08:43.340Z,17.15
2023-04-26T11:11:12.437Z,17.27
2023-04-26T11:13:41.470Z,17.36
2023-04-26T11:16:10.205Z,17.45
2023-04-26T11:18:39.744Z,17.58
2023-04-26T11:21:08.287Z,17.51
2023-04-26T11:23:36.539Z,17.27
2023-04-26T11:26:06.652Z,17.36
2023-04-26T11:28:36.753Z,17.39
2023-04-26T11:31:06.413Z,17.25
2023-04-26T11:33:37.000Z,17.20
2023-04-26T11:36:04.585Z,17.25
2023-04-26T11:38:31.993Z,17.30
2023-04-26T11:41:03.934Z,17.37
2023-04-26T11:43:35.664Z,17.55
2023-04-26T11:46:04.834Z,17.49
2023-04-26T11:48:34.672Z,17.51
2023-04-26T11:51:03.935Z,17.47
2023-04-26T11:53:38.551Z,17.42
2023-04-26T11:56:17.912Z,17.49
2023-04-26T11:58:52.933Z,17.49
2023-04-26T12:01:29.014Z,17.49
2023-04-26T12:03:59.195Z,17.57
2023-04-26T12:06:32.850Z,17.51
2023-04-26T12:09:05.464Z,17.56
2023-04-26T12:11:32.984Z,17.62
2023-04-26T12:14:01.525Z,17.66
2023-04-26T12:16:29.055Z,17.52
2023-04-26T12:18:59.529Z,17.31
2023-04-26T12:21:30.467Z,17.40
2023-04-26T12:23:58.302Z,17.28
2023-04-26T12:26:49.480Z,17.34
2023-04-26T12:29:17.115Z,17.42
2023-04-26T12:31:44.590Z,17.54
2023-04-26T12:34:12.341Z,17.61
2023-04-26T12:36:45.886Z,17.59
2023-04-26T12:39:15.573Z,17.73
2023-04-26T12:41:44.354Z,17.77
2023-04-26T12:44:12.512Z,17.77
2023-04-26T12:46:39.971Z,17.76
2023-04-26T12:49:07.680Z,17.67
2023-04-26T12:51:35.256Z,17.58
2023-04-26T12:54:02.855Z,17.66
2023-04-26T12:56:30.476Z,17.81
2023-04-26T12:58:57.905Z,17.87
2023-04-26T13:01:26.172Z,17.86
2023-04-26T13:03:55.664Z,17.79
2023-04-26T13:06:23.264Z,17.66
2023-04-26T13:08:50.791Z,17.68
2023-04-26T13:11:36.392Z,17.65
2023-04-26T13:14:04.116Z,17.74
2023-04-26T13:16:32.962Z,17.68
2023-04-26T13:19:01.135Z,17.76
2023-04-26T13:21:28.989Z,17.90
2023-04-26T13:23:56.369Z,17.95
2023-04-26T13:26:25.791Z,17.96
2023-04-26T13:28:54.530Z,18.07
2023-04-26T13:31:22.172Z,18.07
2023-04-26T13:33:49.925Z,17.96
2023-04-26T13:36:17.545Z,17.98
2023-04-26T13:38:45.083Z,18.01
2023-04-26T13:41:12.573Z,18.07
2023-04-26T13:43:40.269Z,18.12
2023-04-26T13:46:08.121Z,18.19
2023-04-26T13:48:35.475Z,18.21
2023-04-26T13:51:04.059Z,18.19
2023-04-26T13:53:32.890Z,18.38
2023-04-26T13:56:00.184Z,18.47
2023-04-26T13:58:27.535Z,18.37
2023-04-26T14:00:55.583Z,18.33
2023-04-26T14:03:23.368Z,18.24
2023-04-26T14:05:50.886Z,18.27
2023-04-26T14:08:18.455Z,18.15
2023-04-26T14:10:46.834Z,18.13
2023-04-26T14:13:16.020Z,18.17
2023-04-26T14:15:44.074Z,18.02
2023-04-26T14:18:11.636Z,17.98
2023-04-26T14:20:39.192Z,18.17
2023-04-26T14:23:06.642Z,18.22
2023-04-26T14:25:34.094Z,18.09
2023-04-26T14:28:01.841Z,17.96
2023-04-26T14:30:29.328Z,17.97
2023-04-26T14:32:56.701Z,18.03
2023-04-26T14:35:24.364Z,18.08
2023-04-26T14:37:51.877Z,17.95
2023-04-26T14:40:19.309Z,17.98
2023-04-26T14:42:46.760Z,18.04
2023-04-26T14:45:14.787Z,18.23
2023-04-26T14:48:07.873Z,18.22
2023-04-26T14:50:35.182Z,18.31
2023-04-26T14:53:02.470Z,18.32
2023-04-26T14:55:29.860Z,18.40
2023-04-26T14:57:57.183Z,18.39
2023-04-26T15:00:25.582Z,18.39
2023-04-26T15:02:53.033Z,18.36
2023-04-26T15:05:21.732Z,18.37
2023-04-26T15:07:49.021Z,18.38
2023-04-26T15:10:16.351Z,18.33
2023-04-26T15:12:43.634Z,18.25
2023-04-26T15:15:11.454Z,18.20
2023-04-26T15:17:38.953Z,18.16
2023-04-26T15:20:06.842Z,18.22
2023-04-26T15:22:35.315Z,18.29
2023-04-26T15:25:04.434Z,18.15
2023-04-26T15:27:33.801Z,18.15
2023-04-26T15:30:01.851Z,18.24
2023-04-26T15:32:29.852Z,18.14
2023-04-26T15:34:57.589Z,18.10
2023-04-26T15:37:24.999Z,18.14
2023-04-26T15:39:52.317Z,18.08
2023-04-26T15:42:19.736Z,18.10
2023-04-26T15:44:47.074Z,18.04
2023-04-26T15:47:15.048Z,17.99
2023-04-26T15:49:42.433Z,17.95
2023-04-26T15:52:09.738Z,17.99
2023-04-26T15:54:37.018Z,17.94
2023-04-26T15:57:04.626Z,17.96
2023-04-26T15:59:32.376Z,18.00
2023-04-26T16:01:59.779Z,17.96
2023-04-26T16:04:27.699Z,17.92
2023-04-26T16:06:55.283Z,17.99
2023-04-26T16:09:25.243Z,18.07
2023-04-26T16:11:53.115Z,18.08
2023-04-26T16:14:20.439Z,18.12
2023-04-26T16:16:47.798Z,18.09
2023-04-26T16:19:16.428Z,18.06
2023-04-26T16:21:43.728Z,18.03
2023-04-26T16:24:12.263Z,17.97
2023-04-26T16:26:39.649Z,17.92
2023-04-26T16:29:06.973Z,17.85
2023-04-26T16:31:34.716Z,17.82
2023-04-26T16:34:02.057Z,17.74
2023-04-26T16:36:29.377Z,17.76
2023-04-26T16:38:56.738Z,17.76
2023-04-26T16:41:24.570Z,17.76
2023-04-26T16:43:54.053Z,17.77
2023-04-26T16:46:21.460Z,17.71
2023-04-26T16:48:48.850Z,17.68
2023-04-26T16:51:16.178Z,17.67
2023-04-26T16:53:43.576Z,17.67
2023-04-26T16:56:11.085Z,17.65
2023-04-26T16:58:38.472Z,17.57
2023-04-26T17:01:06.049Z,17.60
2023-04-26T17:03:33.674Z,17.52
2023-04-26T17:06:01.599Z,17.53
2023-04-26T17:08:28.967Z,17.49
2023-04-26T17:10:56.411Z,17.43
2023-04-26T17:13:24.262Z,17.40
2023-04-26T17:15:53.965Z,17.39
2023-04-26T17:18:21.941Z,17.38
2023-04-26T17:20:53.415Z,17.38
2023-04-26T17:23:21.173Z,17.36
2023-04-26T17:25:48.721Z,17.34
2023-04-26T17:28:16.419Z,17.30
2023-04-26T17:30:43.944Z,17.25
2023-04-26T17:33:11.494Z,17.25
2023-04-26T17:35:38.932Z,17.22
2023-04-26T17:38:06.288Z,17.19
2023-04-26T17:40:33.823Z,17.14
2023-04-26T17:43:01.427Z,17.16
2023-04-26T17:45:28.830Z,17.13
2023-04-26T17:48:29.597Z,17.09
2023-04-26T17:50:57.187Z,17.05
2023-04-26T17:53:24.476Z,17.03
2023-04-26T17:55:52.946Z,16.99
2023-04-26T17:58:20.685Z,16.96
2023-04-26T18:00:51.135Z,16.92
2023-04-26T18:03:20.340Z,16.87
2023-04-26T18:05:48.276Z,16.81
2023-04-26T18:08:15.766Z,16.80
2023-04-26T18:10:43.052Z,16.74
2023-04-26T18:13:11.444Z,16.68
2023-04-26T18:15:38.874Z,16.62
2023-04-26T18:18:08.118Z,16.56
2023-04-26T18:20:36.829Z,16.52
2023-04-26T18:23:04.138Z,16.47
2023-04-26T18:25:31.392Z,16.43
2023-04-26T18:27:58.726Z,16.40
2023-04-26T18:30:26.039Z,16.39
2023-04-26T18:32:53.419Z,16.36
2023-04-26T18:35:20.943Z,16.38
2023-04-26T18:37:48.261Z,16.33
2023-04-26T18:40:15.581Z,16.30
2023-04-26T18:42:44.950Z,16.24
2023-04-26T18:45:12.762Z,16.22
2023-04-26T18:47:40.187Z,16.21
2023-04-26T18:50:08.309Z,16.19
2023-04-26T18:52:35.755Z,16.16
2023-04-26T18:55:03.143Z,16.14
2023-04-26T18:57:30.519Z,16.07
2023-04-26T18:59:59.475Z,16.01
2023-04-26T19:02:27.074Z,15.94
2023-04-26T19:04:54.688Z,15.84
2023-04-26T19:07:22.115Z,15.81
2023-04-26T19:09:54.143Z,15.78
2023-04-26T19:12:22.284Z,15.82
2023-04-26T19:14:49.581Z,15.83
2023-04-26T19:17:16.856Z,15.86
2023-04-26T19:19:44.189Z,15.82
2023-04-26T19:22:11.812Z,15.92
2023-04-26T19:24:39.118Z,15.77
2023-04-26T19:27:06.460Z,15.67
2023-04-26T19:29:33.872Z,15.55
2023-04-26T19:32:04.529Z,15.52
2023-04-26T19:34:32.994Z,15.42
2023-04-26T19:37:01.291Z,15.35
2023-04-26T19:39:28.708Z,15.35
2023-04-26T19:41:56.277Z,15.33
2023-04-26T19:44:23.655Z,15.28
2023-04-26T19:46:51.063Z,15.30
2023-04-26T19:49:18.439Z,15.41
2023-04-26T19:51:45.851Z,15.56
2023-04-26T19:54:13.329Z,15.39
2023-04-26T19:56:40.725Z,15.45
2023-04-26T19:59:08.391Z,15.51
2023-04-26T20:01:36.027Z,15.27
2023-04-26T20:04:03.572Z,15.22
2023-04-26T20:06:34.001Z,15.11
2023-04-26T20:09:01.548Z,14.98
2023-04-26T20:11:28.990Z,14.96
2023-04-26T20:13:56.412Z,14.97
2023-04-26T20:16:23.873Z,14.87
2023-04-26T20:18:51.484Z,14.80
2023-04-26T20:21:18.830Z,14.81
2023-04-26T20:23:46.356Z,14.82
2023-04-26T20:26:13.606Z,14.79
2023-04-26T20:28:41.031Z,14.77
2023-04-26T20:31:08.392Z,14.75
2023-04-26T20:33:35.752Z,14.72
2023-04-26T20:36:03.229Z,14.63
2023-04-26T20:38:30.585Z,14.65
2023-04-26T20:40:57.898Z,14.61
2023-04-26T20:43:25.457Z,14.56
2023-04-26T20:45:52.904Z,14.60
2023-04-26T20:48:30.590Z,14.56
2023-04-26T20:51:00.860Z,14.44
2023-04-26T20:53:28.367Z,14.38
2023-04-26T20:55:56.015Z,14.33
2023-04-26T20:58:23.870Z,14.36
2023-04-26T21:00:55.542Z,14.35
2023-04-26T21:03:23.324Z,14.29
2023-04-26T21:05:51.149Z,14.29
2023-04-26T21:08:18.559Z,14.21
2023-04-26T21:10:45.947Z,14.31
2023-04-26T21:13:14.146Z,14.24
2023-04-26T21:15:41.646Z,14.21
2023-04-26T21:18:09.050Z,14.30
2023-04-26T21:20:36.401Z,14.17
2023-04-26T21:23:03.829Z,14.18
2023-04-26T21:25:31.575Z,14.28
2023-04-26T21:27:58.908Z,14.24
2023-04-26T21:30:26.846Z,14.19
2023-04-26T21:32:54.281Z,14.10
2023-04-26T21:35:21.852Z,14.04
2023-04-26T21:37:49.254Z,14.09
2023-04-26T21:40:16.749Z,14.02
2023-04-26T21:42:48.886Z,14.03
2023-04-26T21:45:21.886Z,13.97
2023-04-26T21:47:49.450Z,13.96
2023-04-26T21:50:17.053Z,13.86
2023-04-26T21:52:44.426Z,13.97
2023-04-26T21:55:11.827Z,13.86
2023-04-26T21:57:39.215Z,13.84
2023-04-26T22:00:11.479Z,13.83
2023-04-26T22:02:42.026Z,13.74
2023-04-26T22:05:09.770Z,13.75
2023-04-26T22:07:37.097Z,13.81
2023-04-26T22:10:04.807Z,13.90
2023-04-26T22:12:32.234Z,13.55
2023-04-26T22:14:59.674Z,13.53
2023-04-26T22:17:27.313Z,13.57
2023-04-26T22:19:55.599Z,13.45
2023-04-26T22:22:22.932Z,13.53
2023-04-26T22:24:50.893Z,13.61
2023-04-26T22:27:18.456Z,13.54
2023-04-26T22:29:45.795Z,13.48
2023-04-26T22:32:13.161Z,13.54
2023-04-26T22:34:43.065Z,13.52
2023-04-26T22:37:20.669Z,13.45
2023-04-26T22:39:49.287Z,13.28
2023-04-26T22:42:16.699Z,13.40
2023-04-26T22:44:44.085Z,13.38
2023-04-26T22:47:11.453Z,13.24
2023-04-26T22:49:38.844Z,13.24
2023-04-26T22:52:12.003Z,13.22
2023-04-26T22:54:44.542Z,13.08
2023-04-26T22:57:12.016Z,13.09
2023-04-26T22:59:39.444Z,13.08
2023-04-26T23:02:07.185Z,13.02
2023-04-26T23:04:34.740Z,12.94
2023-04-26T23:07:02.183Z,12.97
2023-04-26T23:09:29.853Z,12.98
2023-04-26T23:11:59.316Z,12.83
2023-04-26T23:14:29.659Z,12.89
2023-04-26T23:16:59.892Z,12.87
2023-04-26T23:19:28.164Z,12.79
2023-04-26T23:21:55.629Z,12.76
2023-04-26T23:24:23.007Z,12.78
2023-04-26T23:26:50.336Z,12.78
2023-04-26T23:29:17.742Z,12.84
2023-04-26T23:31:45.152Z,12.82
2023-04-26T23:34:12.478Z,12.71
2023-04-26T23:36:39.818Z,12.68
2023-04-26T23:39:07.273Z,12.67
2023-04-26T23:41:34.663Z,12.86
2023-04-26T23:44:01.962Z,12.82
2023-04-26T23:46:29.627Z,12.76
2023-04-26T23:48:58.606Z,12.78
2023-04-26T23:51:26.831Z,12.84
2023-04-26T23:53:54.183Z,12.83
2023-04-26T23:56:21.530Z,12.72
2023-04-26T23:58:48.830Z,12.72
